Airfield :
LOGIN :

Register | Disclaimer

   EN    FR    IT 

 










Legend :    VFR   Marginal VFR   IFR   Intensive IFR   Very Intensive IFR
Visi :
Ceiling :
>= 8 km
>= 3000ft
5 to 8 km
1000 to 3000 ft
1500m to 5 km
500 to 1000 ft
800 to 1500m
200 to 500 ft
< 800m
< 200 ft
Symbols :   Thunderstorms  Fog  Heavy snow  Heavy precipitations  Wind > 20 kt
SIGMETs :     Misc.  Thunderstorms  Icing  Turbulence  Mountain Waves  Volcanic Ashes






- Airport Elevation : 16 ft
- IATA code : LPX


EVLA - Liepaja

CURRENT METAR :
  • 190420Z AUTO 23016KT 9999 BKN013/// BKN039/// 05/03 Q1005

EXPIRED METARs :
  • 190350Z AUTO 24017KT 9999 FEW030/// BKN035/// 05/02 Q1005
  • 190320Z AUTO 24016KT 9999 FEW015/// SCT022/// OVC033/// 05/03 Q1005
  • 190250Z AUTO 25015KT 9999 SCT016/// BKN021/// OVC029/// 05/03 Q1005
  • 190220Z AUTO 25018KT 9999 SCT018/// OVC028/// 05/03 Q1005
  • 190150Z AUTO 25018KT 9999 SCT018/// BKN026/// OVC032/// 05/03 Q1005

TAF TAF EVLA
Valid from the 19 at 03:00 until the 20 at 03:00 UTC


190203Z 1903/2003 23018G28KT 9999 BKN020
TEMPO 1903/1906 23020G30KT
TEMPO 1909/1915 BKN010
BECMG 1915/1917 BKN010
TEMPO 1917/2003 BKN005
BECMG 1918/1920 27010KT



MET'MAP, your aeronautical weather chart ! - Copyright ORBIFLY December 2007 - Disclaimer

ORBIFLY MET'MAP TEAM :

Programming & Development : Alexandra Zaïnal
Concept & original design : Baudouin d'Aumeries
Assistance for programming : Marc-Olivier Méhu
Technical & hardware support : Manuel Goepfert

Contact : metmap@orbifly.com




SOURCES & CREDITS :

   NOAA